Time,TemperatureF,DewpointF,PressureIn,WindDirection,WindDirectionDegrees,WindSpeedMPH,WindSpeedGustMPH,Humidity,HourlyPrecipIn,Conditions,Clouds,dailyrainin,SoftwareType,DateUTC
2013-09-02 00:14:00,70.9,70.0,29.90,ESE,108,0.0,0.0,95,0.00,,,0.00,weatherlink.com 1.10,2013-09-02 05:14:00,
2013-09-02 00:29:00,70.8,70.0,29.89,ESE,107,0.0,0.0,96,0.00,,,0.00,weatherlink.com 1.10,2013-09-02 05:29:00,
2013-09-02 00:44:00,70.9,70.0,29.89,SE,129,0.0,1.0,96,0.00,,,0.00,weatherlink.com 1.10,2013-09-02 05:44:00,
2013-09-02 00:59:00,70.8,70.0,29.89,ESE,115,0.0,1.0,96,0.00,,,0.00,weatherlink.com 1.10,2013-09-02 05:59:00,
2013-09-02 01:14:00,70.6,70.0,29.89,ESE,117,0.0,0.0,96,0.00,,,0.00,weatherlink.com 1.10,2013-09-02 06:14:00,
2013-09-02 01:29:00,70.8,70.0,29.89,SE,134,0.0,0.0,96,0.00,,,0.00,weatherlink.com 1.10,2013-09-02 06:29:00,
2013-09-02 01:44:00,70.8,70.0,29.90,South,191,0.0,0.0,96,0.00,,,0.00,weatherlink.com 1.10,2013-09-02 06:44:00,
2013-09-02 01:59:00,70.8,70.0,29.90,ESE,103,0.0,2.0,96,0.00,,,0.00,weatherlink.com 1.10,2013-09-02 06:59:00,
2013-09-02 02:14:00,70.9,70.0,29.90,ESE,120,0.0,1.0,96,0.00,,,0.00,weatherlink.com 1.10,2013-09-02 07:14:00,
2013-09-02 02:29:00,70.8,70.0,29.90,South,181,0.0,1.0,96,0.00,,,0.00,weatherlink.com 1.10,2013-09-02 07:29:00,
2013-09-02 02:44:00,70.5,69.0,29.90,South,180,0.0,0.0,96,0.00,,,0.00,weatherlink.com 1.10,2013-09-02 07:44:00,
2013-09-02 02:59:00,70.4,69.0,29.90,South,180,0.0,0.0,96,0.00,,,0.00,weatherlink.com 1.10,2013-09-02 07:59:00,
2013-09-02 03:14:00,70.4,69.0,29.90,South,180,0.0,0.0,96,0.00,,,0.00,weatherlink.com 1.10,2013-09-02 08:14:00,
2013-09-02 03:29:00,70.4,69.0,29.89,South,180,0.0,0.0,96,0.00,,,0.00,weatherlink.com 1.10,2013-09-02 08:29:00,
2013-09-02 03:44:00,70.2,69.0,29.89,South,180,0.0,0.0,96,0.00,,,0.00,weatherlink.com 1.10,2013-09-02 08:44:00,
2013-09-02 03:59:00,70.1,69.0,29.89,South,180,0.0,0.0,96,0.00,,,0.00,weatherlink.com 1.10,2013-09-02 08:59:00,
2013-09-02 04:14:00,70.2,69.0,29.89,South,180,0.0,0.0,97,0.00,,,0.00,weatherlink.com 1.10,2013-09-02 09:14:00,
2013-09-02 04:29:00,70.3,69.0,29.88,ESE,121,0.0,0.0,97,0.00,,,0.00,weatherlink.com 1.10,2013-09-02 09:29:00,
2013-09-02 04:44:00,70.4,70.0,29.88,SSE,162,0.0,0.0,97,0.00,,,0.00,weatherlink.com 1.10,2013-09-02 09:44:00,
2013-09-02 04:59:00,70.3,69.0,29.88,SSE,163,0.0,0.0,97,0.00,,,0.00,weatherlink.com 1.10,2013-09-02 09:59:00,
2013-09-02 05:14:00,70.2,69.0,29.89,SSE,163,0.0,0.0,97,0.00,,,0.00,weatherlink.com 1.10,2013-09-02 10:14:00,
2013-09-02 05:29:00,70.1,69.0,29.89,SSE,164,0.0,0.0,97,0.00,,,0.00,weatherlink.com 1.10,2013-09-02 10:29:00,
2013-09-02 05:45:00,69.9,69.0,29.89,SSE,163,0.0,0.0,97,0.00,,,0.00,weatherlink.com 1.10,2013-09-02 10:45:00,
2013-09-02 05:59:00,70.1,69.0,29.89,SSE,163,0.0,0.0,97,0.00,,,0.00,weatherlink.com 1.10,2013-09-02 10:59:00,
2013-09-02 06:14:00,69.8,69.0,29.90,SSE,163,0.0,0.0,97,0.00,,,0.00,weatherlink.com 1.10,2013-09-02 11:14:00,
2013-09-02 06:29:00,70.1,69.0,29.91,SE,144,0.0,1.0,97,0.00,,,0.00,weatherlink.com 1.10,2013-09-02 11:29:00,
2013-09-02 06:44:00,70.1,69.0,29.91,SE,143,0.0,0.0,97,0.00,,,0.00,weatherlink.com 1.10,2013-09-02 11:44:00,
2013-09-02 07:00:00,70.6,70.0,29.91,SE,143,0.0,0.0,97,0.00,,,0.00,weatherlink.com 1.10,2013-09-02 12:00:00,
2013-09-02 07:15:00,71.8,71.0,29.92,ESE,120,0.0,1.0,98,0.00,,,0.00,weatherlink.com 1.10,2013-09-02 12:15:00,
2013-09-02 07:30:00,73.4,73.0,29.92,ESE,120,0.0,0.0,97,0.00,,,0.00,weatherlink.com 1.10,2013-09-02 12:30:00,
2013-09-02 07:45:00,75.0,74.0,29.92,SSW,211,0.0,0.0,95,0.00,,,0.00,weatherlink.com 1.10,2013-09-02 12:45:00,
2013-09-02 08:00:00,77.5,75.0,29.92,SW,215,0.0,2.0,93,0.00,,,0.00,weatherlink.com 1.10,2013-09-02 13:00:00,
2013-09-02 08:15:00,79.1,76.0,29.93,NE,44,0.0,1.0,91,0.00,,,0.00,weatherlink.com 1.10,2013-09-02 13:15:00,
2013-09-02 08:30:00,80.4,77.0,29.94,East,89,0.0,2.0,89,0.00,,,0.00,weatherlink.com 1.10,2013-09-02 13:30:00,
2013-09-02 08:45:00,81.1,77.0,29.94,SSW,198,0.0,3.0,88,0.00,,,0.00,weatherlink.com 1.10,2013-09-02 13:45:00,
2013-09-02 09:00:00,82.0,78.0,29.94,SSW,196,1.0,5.0,87,0.00,,,0.00,weatherlink.com 1.10,2013-09-02 14:00:00,
2013-09-02 09:15:00,83.6,79.0,29.94,SSE,160,0.0,3.0,86,0.00,,,0.00,weatherlink.com 1.10,2013-09-02 14:15:00,
2013-09-02 09:30:00,84.3,79.0,29.94,NNW,343,1.0,4.0,85,0.00,,,0.00,weatherlink.com 1.10,2013-09-02 14:30:00,
2013-09-02 09:45:00,85.3,80.0,29.94,North,352,0.0,4.0,83,0.00,,,0.00,weatherlink.com 1.10,2013-09-02 14:45:00,
2013-09-02 10:00:00,86.8,80.0,29.94,NE,49,1.0,4.0,81,0.00,,,0.00,weatherlink.com 1.10,2013-09-02 15:00:00,
2013-09-02 10:15:00,87.8,80.0,29.94,NE,34,0.0,4.0,77,0.00,,,0.00,weatherlink.com 1.10,2013-09-02 15:15:00,
2013-09-02 10:30:00,88.2,79.0,29.95,NE,47,3.0,5.0,74,0.00,,,0.00,weatherlink.com 1.10,2013-09-02 15:30:00,
2013-09-02 10:45:00,87.9,79.0,29.95,NNE,22,1.0,5.0,74,0.00,,,0.00,weatherlink.com 1.10,2013-09-02 15:45:00,
2013-09-02 11:00:00,88.0,79.0,29.95,NW,304,0.0,3.0,75,0.00,,,0.00,weatherlink.com 1.10,2013-09-02 16:00:00,
2013-09-02 11:15:00,88.1,78.0,29.96,North,1,3.0,4.0,73,0.00,,,0.00,weatherlink.com 1.10,2013-09-02 16:15:00,
2013-09-02 11:30:00,88.3,79.0,29.95,NW,305,4.0,6.0,73,0.00,,,0.00,weatherlink.com 1.10,2013-09-02 16:30:00,
2013-09-02 11:45:00,88.6,80.0,29.94,SSW,204,0.0,1.0,75,0.00,,,0.00,weatherlink.com 1.10,2013-09-02 16:45:00,
2013-09-02 12:00:00,90.1,78.0,29.93,ENE,58,0.0,3.0,68,0.00,,,0.00,weatherlink.com 1.10,2013-09-02 17:00:00,
2013-09-02 12:16:00,89.0,79.0,29.92,North,11,2.0,3.0,73,0.00,,,0.00,weatherlink.com 1.10,2013-09-02 17:16:00,
2013-09-02 12:31:00,87.6,79.0,29.91,NNW,343,3.0,7.0,75,0.00,,,0.00,weatherlink.com 1.10,2013-09-02 17:31:00,
2013-09-02 12:46:00,88.4,79.0,29.91,West,277,4.0,8.0,73,0.00,,,0.00,weatherlink.com 1.10,2013-09-02 17:46:00,
2013-09-02 13:01:00,85.7,78.0,29.91,NW,323,9.0,13.0,77,0.00,,,0.00,weatherlink.com 1.10,2013-09-02 18:01:00,
2013-09-02 13:16:00,85.2,78.0,29.91,NNW,335,6.0,8.0,79,0.00,,,0.00,weatherlink.com 1.10,2013-09-02 18:16:00,
2013-09-02 13:31:00,87.4,77.0,29.91,North,359,4.0,14.0,72,0.00,,,0.00,weatherlink.com 1.10,2013-09-02 18:31:00,
2013-09-02 13:46:00,85.7,77.0,29.88,ENE,68,6.0,9.0,75,0.00,,,0.00,weatherlink.com 1.10,2013-09-02 18:46:00,
2013-09-02 14:01:00,85.0,76.0,29.90,NNW,348,1.0,5.0,75,0.00,,,0.00,weatherlink.com 1.10,2013-09-02 19:01:00,
2013-09-02 14:16:00,84.3,76.0,29.90,ENE,77,2.0,3.0,77,0.00,,,0.00,weatherlink.com 1.10,2013-09-02 19:16:00,
2013-09-02 14:31:00,84.7,77.0,29.90,East,92,2.0,3.0,78,0.00,,,0.00,weatherlink.com 1.10,2013-09-02 19:31:00,
2013-09-02 14:46:00,81.7,75.0,29.90,SW,235,0.0,10.0,81,0.00,,,0.00,weatherlink.com 1.10,2013-09-02 19:46:00,
2013-09-02 15:01:00,79.8,74.0,29.89,SE,145,1.0,5.0,83,0.00,,,0.00,weatherlink.com 1.10,2013-09-02 20:01:00,
2013-09-02 15:16:00,79.0,74.0,29.90,South,191,2.0,7.0,84,0.00,,,0.00,weatherlink.com 1.10,2013-09-02 20:16:00,
2013-09-02 15:31:00,80.0,74.0,29.89,SSE,153,1.0,2.0,83,0.00,,,0.00,weatherlink.com 1.10,2013-09-02 20:31:00,
2013-09-02 15:46:00,81.2,76.0,29.89,SW,226,1.0,4.0,83,0.00,,,0.00,weatherlink.com 1.10,2013-09-02 20:46:00,
2013-09-02 16:01:00,81.8,76.0,29.89,SSW,199,2.0,7.0,83,0.00,,,0.00,weatherlink.com 1.10,2013-09-02 21:01:00,
2013-09-02 16:16:00,82.1,77.0,29.88,SW,217,1.0,6.0,84,0.00,,,0.00,weatherlink.com 1.10,2013-09-02 21:16:00,
2013-09-02 16:31:00,81.8,76.0,29.87,SSE,167,4.0,4.0,83,0.00,,,0.00,weatherlink.com 1.10,2013-09-02 21:31:00,
2013-09-02 16:46:00,81.5,76.0,29.87,SSW,195,0.0,3.0,83,0.00,,,0.00,weatherlink.com 1.10,2013-09-02 21:46:00,
2013-09-02 17:01:00,82.0,76.0,29.86,SW,228,0.0,2.0,82,0.00,,,0.00,weatherlink.com 1.10,2013-09-02 22:01:00,
2013-09-02 17:16:00,81.8,76.0,29.85,SSW,198,0.0,2.0,82,0.00,,,0.00,weatherlink.com 1.10,2013-09-02 22:16:00,
2013-09-02 17:31:00,81.9,76.0,29.86,SW,224,0.0,1.0,81,0.00,,,0.00,weatherlink.com 1.10,2013-09-02 22:31:00,
2013-09-02 17:46:00,81.8,76.0,29.86,ESE,120,0.0,1.0,82,0.00,,,0.00,weatherlink.com 1.10,2013-09-02 22:46:00,
2013-09-02 18:01:00,82.5,77.0,29.86,SW,221,0.0,3.0,82,0.00,,,0.00,weatherlink.com 1.10,2013-09-02 23:01:00,
2013-09-02 18:16:00,81.0,76.0,29.87,East,101,3.0,4.0,84,0.00,,,0.00,weatherlink.com 1.10,2013-09-02 23:16:00,
2013-09-02 18:31:00,79.8,75.0,29.88,SW,221,1.0,4.0,86,0.00,,,0.00,weatherlink.com 1.10,2013-09-02 23:31:00,
2013-09-02 18:46:00,78.8,75.0,29.89,SE,145,0.0,3.0,88,0.00,,,0.00,weatherlink.com 1.10,2013-09-02 23:46:00,
2013-09-02 19:01:00,77.9,75.0,29.88,ESE,118,0.0,1.0,90,0.00,,,0.00,weatherlink.com 1.10,2013-09-03 00:01:00,
2013-09-02 19:16:00,77.1,74.0,29.88,SW,230,0.0,1.0,91,0.00,,,0.00,weatherlink.com 1.10,2013-09-03 00:16:00,
2013-09-02 19:31:00,76.5,74.0,29.89,SW,230,0.0,0.0,92,0.00,,,0.00,weatherlink.com 1.10,2013-09-03 00:31:00,
2013-09-02 19:46:00,76.4,74.0,29.89,East,101,0.0,1.0,92,0.00,,,0.00,weatherlink.com 1.10,2013-09-03 00:46:00,
2013-09-02 20:01:00,75.8,73.0,29.89,SSE,153,0.0,0.0,92,0.00,,,0.00,weatherlink.com 1.10,2013-09-03 01:01:00,
2013-09-02 20:16:00,75.6,73.0,29.89,SSE,166,0.0,1.0,92,0.00,,,0.00,weatherlink.com 1.10,2013-09-03 01:16:00,
2013-09-02 20:31:00,74.9,73.0,29.90,SE,124,0.0,0.0,93,0.00,,,0.00,weatherlink.com 1.10,2013-09-03 01:31:00,
2013-09-02 20:46:00,74.3,72.0,29.91,SE,125,0.0,0.0,93,0.00,,,0.00,weatherlink.com 1.10,2013-09-03 01:46:00,
2013-09-02 21:01:00,74.0,72.0,29.91,South,176,0.0,0.0,93,0.00,,,0.00,weatherlink.com 1.10,2013-09-03 02:01:00,
2013-09-02 21:16:00,73.6,72.0,29.92,SSE,168,0.0,0.0,93,0.00,,,0.00,weatherlink.com 1.10,2013-09-03 02:16:00,
2013-09-02 21:31:00,73.3,72.0,29.91,SSE,167,0.0,0.0,94,0.00,,,0.00,weatherlink.com 1.10,2013-09-03 02:31:00,
2013-09-02 21:46:00,73.1,71.0,29.91,ESE,104,0.0,1.0,94,0.00,,,0.00,weatherlink.com 1.10,2013-09-03 02:46:00,
2013-09-02 22:01:00,72.6,71.0,29.91,ESE,103,0.0,0.0,94,0.00,,,0.00,weatherlink.com 1.10,2013-09-03 03:01:00,
2013-09-02 22:16:00,72.4,71.0,29.91,ENE,74,0.0,0.0,94,0.00,,,0.00,weatherlink.com 1.10,2013-09-03 03:16:00,
2013-09-02 22:31:00,72.4,71.0,29.91,SE,136,0.0,1.0,95,0.00,,,0.00,weatherlink.com 1.10,2013-09-03 03:31:00,
2013-09-02 22:46:00,72.0,71.0,29.91,SE,136,0.0,0.0,95,0.00,,,0.00,weatherlink.com 1.10,2013-09-03 03:46:00,
2013-09-02 23:01:00,72.0,71.0,29.90,ESE,117,0.0,0.0,95,0.00,,,0.00,weatherlink.com 1.10,2013-09-03 04:01:00,
2013-09-02 23:16:00,71.8,70.0,29.90,ESE,117,0.0,0.0,95,0.00,,,0.00,weatherlink.com 1.10,2013-09-03 04:16:00,
2013-09-02 23:31:00,71.6,70.0,29.90,ESE,117,0.0,0.0,96,0.00,,,0.00,weatherlink.com 1.10,2013-09-03 04:31:00,
2013-09-02 23:46:00,71.4,70.0,29.91,South,177,0.0,0.0,95,0.00,,,0.00,weatherlink.com 1.10,2013-09-03 04:46:00,